sensor_id;sensor_type;location;lat;lon;timestamp;pressure;altitude;pressure_sealevel;temperature;humidity
26489;BME280;14169;43.684;10.484;2023-04-23T00:00:31;101382.50;;;13.37;100.00
26489;BME280;14169;43.684;10.484;2023-04-23T00:02:57;101380.06;;;13.33;100.00
26489;BME280;14169;43.684;10.484;2023-04-23T00:05:26;101370.56;;;13.30;100.00
26489;BME280;14169;43.684;10.484;2023-04-23T00:07:52;101372.16;;;13.34;100.00
26489;BME280;14169;43.684;10.484;2023-04-23T00:10:18;101374.66;;;13.37;100.00
26489;BME280;14169;43.684;10.484;2023-04-23T00:12:44;101371.41;;;13.31;100.00
26489;BME280;14169;43.684;10.484;2023-04-23T00:15:11;101368.34;;;13.17;100.00
26489;BME280;14169;43.684;10.484;2023-04-23T00:17:36;101364.38;;;13.05;100.00
26489;BME280;14169;43.684;10.484;2023-04-23T00:20:02;101360.16;;;13.01;100.00
26489;BME280;14169;43.684;10.484;2023-04-23T00:22:28;101364.03;;;12.88;100.00
26489;BME280;14169;43.684;10.484;2023-04-23T00:24:53;101356.56;;;12.76;100.00
26489;BME280;14169;43.684;10.484;2023-04-23T00:27:18;101359.63;;;12.62;100.00
26489;BME280;14169;43.684;10.484;2023-04-23T00:29:45;101356.47;;;12.51;100.00
26489;BME280;14169;43.684;10.484;2023-04-23T00:32:11;101354.25;;;12.39;100.00
26489;BME280;14169;43.684;10.484;2023-04-23T00:34:36;101358.16;;;12.25;100.00
26489;BME280;14169;43.684;10.484;2023-04-23T00:37:02;101356.75;;;12.12;100.00
26489;BME280;14169;43.684;10.484;2023-04-23T00:39:31;101355.31;;;12.02;100.00
26489;BME280;14169;43.684;10.484;2023-04-23T00:41:57;101353.16;;;11.85;100.00
26489;BME280;14169;43.684;10.484;2023-04-23T00:44:24;101355.19;;;11.74;100.00
26489;BME280;14169;43.684;10.484;2023-04-23T00:46:50;101358.88;;;11.67;100.00
26489;BME280;14169;43.684;10.484;2023-04-23T00:49:18;101360.69;;;11.63;100.00
26489;BME280;14169;43.684;10.484;2023-04-23T00:51:43;101358.97;;;11.62;100.00
26489;BME280;14169;43.684;10.484;2023-04-23T00:54:08;101357.22;;;11.63;100.00
26489;BME280;14169;43.684;10.484;2023-04-23T00:56:34;101357.19;;;11.64;100.00
26489;BME280;14169;43.684;10.484;2023-04-23T00:58:59;101352.00;;;11.63;100.00
26489;BME280;14169;43.684;10.484;2023-04-23T01:01:27;101358.22;;;11.59;100.00
26489;BME280;14169;43.684;10.484;2023-04-23T01:03:54;101352.94;;;11.60;100.00
26489;BME280;14169;43.684;10.484;2023-04-23T01:06:20;101342.38;;;11.65;100.00
26489;BME280;14169;43.684;10.484;2023-04-23T01:08:49;101343.19;;;11.67;100.00
26489;BME280;14169;43.684;10.484;2023-04-23T01:11:15;101350.09;;;11.69;100.00
26489;BME280;14169;43.684;10.484;2023-04-23T01:13:41;101349.13;;;11.73;100.00
26489;BME280;14169;43.684;10.484;2023-04-23T01:16:07;101341.19;;;11.76;100.00
26489;BME280;14169;43.684;10.484;2023-04-23T01:18:32;101351.41;;;11.84;100.00
26489;BME280;14169;43.684;10.484;2023-04-23T01:20:58;101356.56;;;11.87;100.00
26489;BME280;14169;43.684;10.484;2023-04-23T01:23:24;101348.69;;;11.89;100.00
26489;BME280;14169;43.684;10.484;2023-04-23T01:25:52;101351.34;;;11.87;100.00
26489;BME280;14169;43.684;10.484;2023-04-23T01:28:17;101353.16;;;11.83;100.00
26489;BME280;14169;43.684;10.484;2023-04-23T01:30:43;101355.16;;;11.75;100.00
26489;BME280;14169;43.684;10.484;2023-04-23T01:33:10;101351.09;;;11.65;100.00
26489;BME280;14169;43.684;10.484;2023-04-23T01:35:35;101355.72;;;11.54;100.00
26489;BME280;14169;43.684;10.484;2023-04-23T01:38:06;101354.16;;;11.47;100.00
26489;BME280;14169;43.684;10.484;2023-04-23T01:40:33;101347.16;;;11.48;100.00
26489;BME280;14169;43.684;10.484;2023-04-23T01:42:59;101349.06;;;11.43;100.00
26489;BME280;14169;43.684;10.484;2023-04-23T01:45:24;101343.09;;;11.38;100.00
26489;BME280;14169;43.684;10.484;2023-04-23T01:47:50;101348.34;;;11.36;100.00
26489;BME280;14169;43.684;10.484;2023-04-23T01:50:15;101350.22;;;11.31;100.00
26489;BME280;14169;43.684;10.484;2023-04-23T01:52:41;101346.75;;;11.31;100.00
26489;BME280;14169;43.684;10.484;2023-04-23T01:55:08;101346.81;;;11.29;100.00
26489;BME280;14169;43.684;10.484;2023-04-23T01:57:35;101344.25;;;11.26;100.00
26489;BME280;14169;43.684;10.484;2023-04-23T02:02:34;101336.44;;;11.26;100.00
26489;BME280;14169;43.684;10.484;2023-04-23T02:05:00;101339.03;;;11.26;100.00
26489;BME280;14169;43.684;10.484;2023-04-23T02:07:32;101331.31;;;11.22;100.00
26489;BME280;14169;43.684;10.484;2023-04-23T02:09:58;101341.06;;;11.15;100.00
26489;BME280;14169;43.684;10.484;2023-04-23T02:12:24;101336.00;;;11.09;100.00
26489;BME280;14169;43.684;10.484;2023-04-23T02:14:50;101336.06;;;11.08;100.00
26489;BME280;14169;43.684;10.484;2023-04-23T02:17:15;101323.06;;;11.05;100.00
26489;BME280;14169;43.684;10.484;2023-04-23T02:19:41;101319.59;;;11.04;100.00
26489;BME280;14169;43.684;10.484;2023-04-23T02:22:06;101326.53;;;11.05;100.00
26489;BME280;14169;43.684;10.484;2023-04-23T02:24:33;101326.59;;;11.04;100.00
26489;BME280;14169;43.684;10.484;2023-04-23T02:26:58;101323.94;;;11.05;100.00
26489;BME280;14169;43.684;10.484;2023-04-23T02:29:24;101307.38;;;11.06;100.00
26489;BME280;14169;43.684;10.484;2023-04-23T02:31:50;101316.13;;;11.05;100.00
26489;BME280;14169;43.684;10.484;2023-04-23T02:34:15;101313.56;;;11.04;100.00
26489;BME280;14169;43.684;10.484;2023-04-23T02:36:40;101302.31;;;11.02;100.00
26489;BME280;14169;43.684;10.484;2023-04-23T02:39:06;101310.13;;;11.02;100.00
26489;BME280;14169;43.684;10.484;2023-04-23T02:41:31;101305.84;;;10.99;100.00
26489;BME280;14169;43.684;10.484;2023-04-23T02:43:57;101320.56;;;11.02;100.00
26489;BME280;14169;43.684;10.484;2023-04-23T02:46:22;101317.09;;;11.01;100.00
26489;BME280;14169;43.684;10.484;2023-04-23T02:48:47;101308.44;;;10.99;100.00
26489;BME280;14169;43.684;10.484;2023-04-23T02:51:13;101313.69;;;10.98;100.00
26489;BME280;14169;43.684;10.484;2023-04-23T02:53:38;101316.38;;;10.94;100.00
26489;BME280;14169;43.684;10.484;2023-04-23T02:56:04;101320.75;;;10.92;100.00
26489;BME280;14169;43.684;10.484;2023-04-23T02:58:30;101315.66;;;10.88;100.00
26489;BME280;14169;43.684;10.484;2023-04-23T03:00:56;101320.09;;;10.84;100.00
26489;BME280;14169;43.684;10.484;2023-04-23T03:03:21;101315.78;;;10.83;100.00
26489;BME280;14169;43.684;10.484;2023-04-23T03:05:50;101314.97;;;10.81;100.00
26489;BME280;14169;43.684;10.484;2023-04-23T03:08:16;101316.63;;;10.84;100.00
26489;BME280;14169;43.684;10.484;2023-04-23T03:10:41;101319.22;;;10.84;100.00
26489;BME280;14169;43.684;10.484;2023-04-23T03:13:07;101313.13;;;10.85;100.00
26489;BME280;14169;43.684;10.484;2023-04-23T03:15:32;101319.16;;;10.87;100.00
26489;BME280;14169;43.684;10.484;2023-04-23T03:17:57;101314.81;;;10.87;100.00
26489;BME280;14169;43.684;10.484;2023-04-23T03:20:23;101328.72;;;10.86;100.00
26489;BME280;14169;43.684;10.484;2023-04-23T03:22:48;101322.78;;;10.81;100.00
26489;BME280;14169;43.684;10.484;2023-04-23T03:25:14;101318.34;;;10.85;100.00
26489;BME280;14169;43.684;10.484;2023-04-23T03:27:40;101327.75;;;10.90;100.00
26489;BME280;14169;43.684;10.484;2023-04-23T03:30:07;101323.31;;;10.94;100.00
26489;BME280;14169;43.684;10.484;2023-04-23T03:32:34;101327.66;;;10.95;100.00
26489;BME280;14169;43.684;10.484;2023-04-23T03:35:00;101332.91;;;10.93;100.00
26489;BME280;14169;43.684;10.484;2023-04-23T03:37:26;101326.06;;;10.89;100.00
26489;BME280;14169;43.684;10.484;2023-04-23T03:39:51;101325.09;;;10.93;100.00
26489;BME280;14169;43.684;10.484;2023-04-23T03:42:17;101325.00;;;10.97;100.00
26489;BME280;14169;43.684;10.484;2023-04-23T03:44:42;101324.03;;;11.01;100.00
26489;BME280;14169;43.684;10.484;2023-04-23T03:47:07;101319.75;;;11.00;100.00
26489;BME280;14169;43.684;10.484;2023-04-23T03:49:33;101324.00;;;11.02;100.00
26489;BME280;14169;43.684;10.484;2023-04-23T03:51:58;101320.50;;;11.03;100.00
26489;BME280;14169;43.684;10.484;2023-04-23T03:54:24;101322.31;;;11.01;100.00
26489;BME280;14169;43.684;10.484;2023-04-23T03:56:53;101329.34;;;10.96;100.00
26489;BME280;14169;43.684;10.484;2023-04-23T03:59:19;101329.34;;;10.98;100.00
26489;BME280;14169;43.684;10.484;2023-04-23T04:01:45;101329.34;;;10.96;100.00
26489;BME280;14169;43.684;10.484;2023-04-23T04:04:13;101326.75;;;10.96;100.00
26489;BME280;14169;43.684;10.484;2023-04-23T04:06:39;101321.63;;;10.93;100.00
26489;BME280;14169;43.684;10.484;2023-04-23T04:09:05;101326.84;;;10.93;100.00
26489;BME280;14169;43.684;10.484;2023-04-23T04:11:32;101324.22;;;10.93;100.00
26489;BME280;14169;43.684;10.484;2023-04-23T04:13:57;101329.59;;;10.87;100.00
26489;BME280;14169;43.684;10.484;2023-04-23T04:16:22;101324.44;;;10.84;100.00
26489;BME280;14169;43.684;10.484;2023-04-23T04:18:48;101327.94;;;10.83;100.00
26489;BME280;14169;43.684;10.484;2023-04-23T04:21:13;101326.22;;;10.83;100.00
26489;BME280;14169;43.684;10.484;2023-04-23T04:23:40;101328.78;;;10.85;100.00
26489;BME280;14169;43.684;10.484;2023-04-23T04:26:05;101327.94;;;10.83;100.00
26489;BME280;14169;43.684;10.484;2023-04-23T04:28:32;101323.69;;;10.79;100.00
26489;BME280;14169;43.684;10.484;2023-04-23T04:31:00;101321.09;;;10.79;100.00
26489;BME280;14169;43.684;10.484;2023-04-23T04:33:26;101320.31;;;10.75;100.00
26489;BME280;14169;43.684;10.484;2023-04-23T04:35:51;101320.28;;;10.77;100.00
26489;BME280;14169;43.684;10.484;2023-04-23T04:38:17;101315.88;;;10.79;100.00
26489;BME280;14169;43.684;10.484;2023-04-23T04:40:42;101320.16;;;10.81;100.00
26489;BME280;14169;43.684;10.484;2023-04-23T04:43:08;101325.34;;;10.83;100.00
26489;BME280;14169;43.684;10.484;2023-04-23T04:45:34;101328.72;;;10.86;100.00
26489;BME280;14169;43.684;10.484;2023-04-23T04:47:59;101326.94;;;10.88;100.00
26489;BME280;14169;43.684;10.484;2023-04-23T04:50:25;101340.78;;;10.90;100.00
26489;BME280;14169;43.684;10.484;2023-04-23T04:52:50;101337.25;;;10.93;100.00
26489;BME280;14169;43.684;10.484;2023-04-23T04:55:16;101341.63;;;10.92;100.00
26489;BME280;14169;43.684;10.484;2023-04-23T04:57:41;101332.88;;;10.95;100.00
26489;BME280;14169;43.684;10.484;2023-04-23T05:00:27;101335.38;;;11.00;100.00
26489;BME280;14169;43.684;10.484;2023-04-23T05:02:54;101331.75;;;11.05;100.00
26489;BME280;14169;43.684;10.484;2023-04-23T05:05:21;101336.06;;;11.08;100.00
26489;BME280;14169;43.684;10.484;2023-04-23T05:07:47;101336.00;;;11.09;100.00
26489;BME280;14169;43.684;10.484;2023-04-23T05:10:14;101333.44;;;11.08;100.00
26489;BME280;14169;43.684;10.484;2023-04-23T05:12:39;101336.94;;;11.07;100.00
26489;BME280;14169;43.684;10.484;2023-04-23T05:15:09;101338.63;;;11.09;100.00
26489;BME280;14169;43.684;10.484;2023-04-23T05:17:36;101343.88;;;11.06;100.00
26489;BME280;14169;43.684;10.484;2023-04-23T05:20:02;101337.03;;;11.02;100.00
26489;BME280;14169;43.684;10.484;2023-04-23T05:22:27;101338.75;;;11.03;100.00
26489;BME280;14169;43.684;10.484;2023-04-23T05:24:53;101347.34;;;11.07;100.00
26489;BME280;14169;43.684;10.484;2023-04-23T05:27:18;101351.56;;;11.12;100.00
26489;BME280;14169;43.684;10.484;2023-04-23T05:29:44;101347.06;;;11.19;100.00
26489;BME280;14169;43.684;10.484;2023-04-23T05:32:09;101346.81;;;11.28;100.00
26489;BME280;14169;43.684;10.484;2023-04-23T05:34:35;101349.31;;;11.32;100.00
26489;BME280;14169;43.684;10.484;2023-04-23T05:37:01;101349.00;;;11.44;100.00
26489;BME280;14169;43.684;10.484;2023-04-23T05:39:26;101359.19;;;11.55;100.00
26489;BME280;14169;43.684;10.484;2023-04-23T05:41:52;101351.25;;;11.59;100.00
26489;BME280;14169;43.684;10.484;2023-04-23T05:44:17;101347.59;;;11.65;100.00
26489;BME280;14169;43.684;10.484;2023-04-23T05:46:42;101349.13;;;11.72;100.00
26489;BME280;14169;43.684;10.484;2023-04-23T05:49:08;101358.53;;;11.79;100.00
26489;BME280;14169;43.684;10.484;2023-04-23T05:51:33;101366.28;;;11.82;100.00
26489;BME280;14169;43.684;10.484;2023-04-23T05:53:59;101367.03;;;11.86;100.00
26489;BME280;14169;43.684;10.484;2023-04-23T05:56:24;101369.56;;;11.89;100.00
26489;BME280;14169;43.684;10.484;2023-04-23T05:58:50;101363.34;;;11.94;100.00
26489;BME280;14169;43.684;10.484;2023-04-23T06:01:15;101363.34;;;11.94;100.00
26489;BME280;14169;43.684;10.484;2023-04-23T06:03:40;101359.75;;;11.98;100.00
26489;BME280;14169;43.684;10.484;2023-04-23T06:06:12;101363.19;;;12.00;100.00
26489;BME280;14169;43.684;10.484;2023-04-23T06:08:38;101360.50;;;12.03;100.00
26489;BME280;14169;43.684;10.484;2023-04-23T06:11:04;101369.19;;;12.04;100.00
26489;BME280;14169;43.684;10.484;2023-04-23T06:13:30;101363.97;;;12.04;100.00
26489;BME280;14169;43.684;10.484;2023-04-23T06:15:56;101374.34;;;12.07;100.00
26489;BME280;14169;43.684;10.484;2023-04-23T06:18:21;101364.69;;;12.09;100.00
26489;BME280;14169;43.684;10.484;2023-04-23T06:20:47;101369.88;;;12.10;100.00
26489;BME280;14169;43.684;10.484;2023-04-23T06:23:13;101373.34;;;12.11;100.00
26489;BME280;14169;43.684;10.484;2023-04-23T06:25:38;101370.63;;;12.14;100.00
26489;BME280;14169;43.684;10.484;2023-04-23T06:28:04;101377.41;;;12.21;100.00
26489;BME280;14169;43.684;10.484;2023-04-23T06:30:29;101381.34;;;12.35;100.00
26489;BME280;14169;43.684;10.484;2023-04-23T06:32:55;101372.19;;;12.50;100.00
26489;BME280;14169;43.684;10.484;2023-04-23T06:35:20;101370.94;;;12.63;100.00
26489;BME280;14169;43.684;10.484;2023-04-23T06:37:46;101384.41;;;12.79;100.00
26489;BME280;14169;43.684;10.484;2023-04-23T06:40:11;101376.94;;;12.94;100.00
26489;BME280;14169;43.684;10.484;2023-04-23T06:42:36;101375.47;;;13.12;100.00
26489;BME280;14169;43.684;10.484;2023-04-23T06:45:02;101378.66;;;13.23;100.00
26489;BME280;14169;43.684;10.484;2023-04-23T06:47:29;101380.81;;;13.36;100.00
26489;BME280;14169;43.684;10.484;2023-04-23T06:49:55;101384.56;;;13.54;100.00
26489;BME280;14169;43.684;10.484;2023-04-23T06:52:20;101379.84;;;13.65;100.00
26489;BME280;14169;43.684;10.484;2023-04-23T06:54:46;101378.38;;;13.81;100.00
26489;BME280;14169;43.684;10.484;2023-04-23T06:57:11;101375.97;;;14.00;100.00
26489;BME280;14169;43.684;10.484;2023-04-23T06:59:39;101372.97;;;14.10;100.00
26489;BME280;14169;43.684;10.484;2023-04-23T07:02:04;101372.41;;;14.25;100.00
26489;BME280;14169;43.684;10.484;2023-04-23T07:04:30;101372.78;;;14.40;100.00
26489;BME280;14169;43.684;10.484;2023-04-23T07:06:55;101379.09;;;14.57;100.00
26489;BME280;14169;43.684;10.484;2023-04-23T07:09:21;101386.22;;;14.77;100.00
26489;BME280;14169;43.684;10.484;2023-04-23T07:11:47;101392.75;;;14.88;100.00
26489;BME280;14169;43.684;10.484;2023-04-23T07:14:12;101389.41;;;15.06;100.00
26489;BME280;14169;43.684;10.484;2023-04-23T07:16:38;101390.28;;;15.27;100.00
26489;BME280;14169;43.684;10.484;2023-04-23T07:19:03;101387.16;;;15.41;100.00
26489;BME280;14169;43.684;10.484;2023-04-23T07:21:29;101388.41;;;15.52;100.00
26489;BME280;14169;43.684;10.484;2023-04-23T07:23:58;101387.69;;;15.69;100.00
26489;BME280;14169;43.684;10.484;2023-04-23T07:26:32;101385.06;;;15.89;100.00
26489;BME280;14169;43.684;10.484;2023-04-23T07:28:57;101388.81;;;16.03;100.00
26489;BME280;14169;43.684;10.484;2023-04-23T07:31:22;101388.44;;;16.11;100.00
26489;BME280;14169;43.684;10.484;2023-04-23T07:33:48;101382.09;;;16.17;100.00
26489;BME280;14169;43.684;10.484;2023-04-23T07:36:14;101396.59;;;16.25;100.00
26489;BME280;14169;43.684;10.484;2023-04-23T07:38:39;101391.13;;;16.30;100.00
26489;BME280;14169;43.684;10.484;2023-04-23T07:41:05;101392.19;;;16.46;100.00
26489;BME280;14169;43.684;10.484;2023-04-23T07:43:30;101383.50;;;16.62;100.00
26489;BME280;14169;43.684;10.484;2023-04-23T07:45:55;101389.13;;;16.73;100.00
26489;BME280;14169;43.684;10.484;2023-04-23T07:48:21;101393.31;;;16.77;100.00
26489;BME280;14169;43.684;10.484;2023-04-23T07:50:46;101398.22;;;16.85;100.00
26489;BME280;14169;43.684;10.484;2023-04-23T07:53:12;101398.84;;;16.90;100.00
26489;BME280;14169;43.684;10.484;2023-04-23T07:55:38;101396.47;;;17.03;100.00
26489;BME280;14169;43.684;10.484;2023-04-23T07:58:03;101395.97;;;17.13;100.00
26489;BME280;14169;43.684;10.484;2023-04-23T08:00:28;101392.13;;;17.20;100.00
26489;BME280;14169;43.684;10.484;2023-04-23T08:02:54;101396.66;;;17.35;100.00
26489;BME280;14169;43.684;10.484;2023-04-23T08:05:19;101399.06;;;17.40;100.00
26489;BME280;14169;43.684;10.484;2023-04-23T08:07:45;101402.88;;;17.51;100.00
26489;BME280;14169;43.684;10.484;2023-04-23T08:10:10;101403.03;;;17.65;100.00
26489;BME280;14169;43.684;10.484;2023-04-23T08:12:36;101405.38;;;17.72;100.00
26489;BME280;14169;43.684;10.484;2023-04-23T08:15:02;101404.81;;;17.82;100.00
26489;BME280;14169;43.684;10.484;2023-04-23T08:17:27;101409.00;;;17.86;100.00
26489;BME280;14169;43.684;10.484;2023-04-23T08:19:53;101416.28;;;17.98;100.00
26489;BME280;14169;43.684;10.484;2023-04-23T08:22:18;101418.53;;;18.06;100.00
26489;BME280;14169;43.684;10.484;2023-04-23T08:24:44;101416.94;;;18.19;100.00
26489;BME280;14169;43.684;10.484;2023-04-23T08:27:10;101418.38;;;18.26;100.00
26489;BME280;14169;43.684;10.484;2023-04-23T08:29:36;101414.47;;;18.33;100.00
26489;BME280;14169;43.684;10.484;2023-04-23T08:32:01;101422.34;;;18.50;100.00
26489;BME280;14169;43.684;10.484;2023-04-23T08:34:27;101427.78;;;18.63;100.00
26489;BME280;14169;43.684;10.484;2023-04-23T08:36:52;101413.25;;;18.87;100.00
26489;BME280;14169;43.684;10.484;2023-04-23T08:39:18;101420.16;;;19.05;100.00
26489;BME280;14169;43.684;10.484;2023-04-23T08:41:46;101424.63;;;19.20;100.00
26489;BME280;14169;43.684;10.484;2023-04-23T08:44:18;101417.06;;;19.44;100.00
26489;BME280;14169;43.684;10.484;2023-04-23T08:46:45;101407.97;;;19.63;100.00
26489;BME280;14169;43.684;10.484;2023-04-23T08:49:16;101404.25;;;19.81;100.00
26489;BME280;14169;43.684;10.484;2023-04-23T08:51:47;101403.09;;;20.01;100.00
26489;BME280;14169;43.684;10.484;2023-04-23T08:54:18;101403.50;;;20.23;100.00
26489;BME280;14169;43.684;10.484;2023-04-23T08:56:44;101405.09;;;20.40;100.00
26489;BME280;14169;43.684;10.484;2023-04-23T08:59:10;101404.25;;;20.39;100.00
26489;BME280;14169;43.684;10.484;2023-04-23T09:01:36;101404.78;;;20.30;100.00
26489;BME280;14169;43.684;10.484;2023-04-23T09:04:02;101401.97;;;20.33;100.00
26489;BME280;14169;43.684;10.484;2023-04-23T09:06:28;101395.66;;;20.36;100.00
26489;BME280;14169;43.684;10.484;2023-04-23T09:08:57;101389.78;;;20.31;100.00
26489;BME280;14169;43.684;10.484;2023-04-23T09:11:26;101386.00;;;20.49;100.00
26489;BME280;14169;43.684;10.484;2023-04-23T09:13:52;101396.81;;;20.86;100.00
26489;BME280;14169;43.684;10.484;2023-04-23T09:16:17;101386.44;;;21.10;100.00
26489;BME280;14169;43.684;10.484;2023-04-23T09:18:43;101377.91;;;21.19;100.00
26489;BME280;14169;43.684;10.484;2023-04-23T09:21:08;101375.09;;;21.35;100.00
26489;BME280;14169;43.684;10.484;2023-04-23T09:23:37;101379.41;;;21.62;100.00
26489;BME280;14169;43.684;10.484;2023-04-23T09:26:05;101383.44;;;21.68;100.00
26489;BME280;14169;43.684;10.484;2023-04-23T09:28:34;101366.06;;;21.76;100.00
26489;BME280;14169;43.684;10.484;2023-04-23T09:31:00;101367.78;;;21.77;100.00
26489;BME280;14169;43.684;10.484;2023-04-23T09:33:27;101368.19;;;21.97;98.22
26489;BME280;14169;43.684;10.484;2023-04-23T09:35:52;101365.22;;;22.14;97.03
26489;BME280;14169;43.684;10.484;2023-04-23T09:38:18;101356.59;;;22.48;97.55
26489;BME280;14169;43.684;10.484;2023-04-23T09:40:44;101362.63;;;22.62;96.02
26489;BME280;14169;43.684;10.484;2023-04-23T09:43:10;101370.28;;;22.67;92.44
26489;BME280;14169;43.684;10.484;2023-04-23T09:45:35;101366.72;;;22.79;91.27
26489;BME280;14169;43.684;10.484;2023-04-23T09:48:01;101366.88;;;22.65;89.07
26489;BME280;14169;43.684;10.484;2023-04-23T09:50:39;101366.78;;;23.03;91.61
26489;BME280;14169;43.684;10.484;2023-04-23T09:53:06;101360.16;;;23.08;88.71
26489;BME280;14169;43.684;10.484;2023-04-23T09:55:34;101361.66;;;23.47;85.95
26489;BME280;14169;43.684;10.484;2023-04-23T09:58:05;101359.75;;;23.60;81.09
26489;BME280;14169;43.684;10.484;2023-04-23T10:00:36;101367.34;;;23.88;81.83
26489;BME280;14169;43.684;10.484;2023-04-23T10:03:02;101357.06;;;23.60;75.77
26489;BME280;14169;43.684;10.484;2023-04-23T10:05:28;101355.94;;;23.40;80.47
26489;BME280;14169;43.684;10.484;2023-04-23T10:07:55;101345.63;;;23.36;79.39
26489;BME280;14169;43.684;10.484;2023-04-23T10:10:22;101346.41;;;23.49;79.82
26489;BME280;14169;43.684;10.484;2023-04-23T10:12:50;101337.50;;;23.61;79.45
26489;BME280;14169;43.684;10.484;2023-04-23T10:15:16;101340.06;;;23.63;78.72
26489;BME280;14169;43.684;10.484;2023-04-23T10:17:42;101342.09;;;23.59;77.47
26489;BME280;14169;43.684;10.484;2023-04-23T10:20:08;101347.41;;;23.59;77.22
26489;BME280;14169;43.684;10.484;2023-04-23T10:22:34;101343.38;;;23.53;76.05
26489;BME280;14169;43.684;10.484;2023-04-23T10:25:08;101351.53;;;23.28;71.17
26489;BME280;14169;43.684;10.484;2023-04-23T10:27:37;101345.44;;;23.15;73.08
26489;BME280;14169;43.684;10.484;2023-04-23T10:30:05;101351.09;;;23.11;74.38
26489;BME280;14169;43.684;10.484;2023-04-23T10:32:32;101352.41;;;23.05;75.79
26489;BME280;14169;43.684;10.484;2023-04-23T10:34:57;101354.63;;;23.11;76.64
26489;BME280;14169;43.684;10.484;2023-04-23T10:37:23;101354.91;;;23.19;77.39
26489;BME280;14169;43.684;10.484;2023-04-23T10:39:53;101352.78;;;23.35;78.46
26489;BME280;14169;43.684;10.484;2023-04-23T10:42:19;101344.97;;;23.56;77.38
26489;BME280;14169;43.684;10.484;2023-04-23T10:44:45;101338.69;;;24.25;74.73
26489;BME280;14169;43.684;10.484;2023-04-23T10:47:13;101337.25;;;24.21;71.11
26489;BME280;14169;43.684;10.484;2023-04-23T10:49:39;101332.25;;;24.05;70.94
26489;BME280;14169;43.684;10.484;2023-04-23T10:52:09;101332.13;;;23.96;72.69
26489;BME280;14169;43.684;10.484;2023-04-23T10:54:35;101331.06;;;23.87;73.35
26489;BME280;14169;43.684;10.484;2023-04-23T10:57:03;101327.75;;;23.84;73.35
26489;BME280;14169;43.684;10.484;2023-04-23T10:59:33;101331.16;;;24.08;72.68
26489;BME280;14169;43.684;10.484;2023-04-23T11:02:10;101322.47;;;24.50;70.83
26489;BME280;14169;43.684;10.484;2023-04-23T11:04:41;101331.72;;;24.78;68.42
26489;BME280;14169;43.684;10.484;2023-04-23T11:07:10;101327.78;;;24.28;66.08
26489;BME280;14169;43.684;10.484;2023-04-23T11:12:07;101323.72;;;24.89;67.48
26489;BME280;14169;43.684;10.484;2023-04-23T11:14:33;101326.69;;;25.06;65.67
26489;BME280;14169;43.684;10.484;2023-04-23T11:17:01;101328.88;;;24.59;67.05
26489;BME280;14169;43.684;10.484;2023-04-23T11:19:27;101327.47;;;24.75;66.61
26489;BME280;14169;43.684;10.484;2023-04-23T11:21:57;101315.72;;;25.41;64.48
26489;BME280;14169;43.684;10.484;2023-04-23T11:26:56;101312.47;;;26.39;59.82
26489;BME280;14169;43.684;10.484;2023-04-23T11:29:23;101298.63;;;26.64;59.48
26489;BME280;14169;43.684;10.484;2023-04-23T11:31:49;101305.50;;;26.18;56.42
26489;BME280;14169;43.684;10.484;2023-04-23T11:34:16;101295.81;;;25.86;57.50
26489;BME280;14169;43.684;10.484;2023-04-23T11:36:42;101293.56;;;25.91;56.32
26489;BME280;14169;43.684;10.484;2023-04-23T11:39:08;101288.59;;;26.17;56.18
26489;BME280;14169;43.684;10.484;2023-04-23T11:41:35;101289.44;;;26.38;55.06
26489;BME280;14169;43.684;10.484;2023-04-23T11:44:00;101288.66;;;26.76;55.56
26489;BME280;14169;43.684;10.484;2023-04-23T11:46:26;101285.81;;;26.68;52.78
26489;BME280;14169;43.684;10.484;2023-04-23T11:48:51;101283.56;;;26.14;48.16
26489;BME280;14169;43.684;10.484;2023-04-23T11:51:17;101284.19;;;25.97;47.84
26489;BME280;14169;43.684;10.484;2023-04-23T11:53:49;101294.31;;;26.33;48.68
26489;BME280;14169;43.684;10.484;2023-04-23T11:56:17;101282.28;;;26.67;47.10
26489;BME280;14169;43.684;10.484;2023-04-23T11:58:44;101278.09;;;26.74;46.38
26489;BME280;14169;43.684;10.484;2023-04-23T12:01:10;101276.13;;;26.76;47.85
26489;BME280;14169;43.684;10.484;2023-04-23T12:03:39;101274.66;;;26.44;46.87
26489;BME280;14169;43.684;10.484;2023-04-23T12:06:05;101265.97;;;26.12;49.64
26489;BME280;14169;43.684;10.484;2023-04-23T12:08:32;101262.78;;;26.96;47.78
26489;BME280;14169;43.684;10.484;2023-04-23T12:11:01;101271.91;;;26.83;45.73
26489;BME280;14169;43.684;10.484;2023-04-23T12:13:28;101261.16;;;26.36;47.39
26489;BME280;14169;43.684;10.484;2023-04-23T12:15:58;101265.03;;;25.62;48.75
26489;BME280;14169;43.684;10.484;2023-04-23T12:18:27;101273.91;;;25.21;49.00
26489;BME280;14169;43.684;10.484;2023-04-23T12:20:53;101274.72;;;24.58;49.41
26489;BME280;14169;43.684;10.484;2023-04-23T12:23:27;101264.31;;;24.98;47.54
26489;BME280;14169;43.684;10.484;2023-04-23T12:25:53;101259.25;;;25.15;46.84
26489;BME280;14169;43.684;10.484;2023-04-23T12:28:22;101266.66;;;24.80;47.78
26489;BME280;14169;43.684;10.484;2023-04-23T12:30:49;101264.13;;;24.25;50.32
26489;BME280;14169;43.684;10.484;2023-04-23T12:33:15;101259.66;;;23.81;53.94
26489;BME280;14169;43.684;10.484;2023-04-23T12:35:43;101268.56;;;23.58;57.99